This is the latest recevied weather packets stored in our database for station/object KC7WRB. If no packets are shown the sender has not sent any weather packets the latest 1 day(s).
| Time | Temp. | Humidity | Pressure | Rain* | Wind** | Luminosity | Snow |
|---|---|---|---|---|---|---|---|
| 1778035424 | 14.44° C | 62% | 1013.5 hPa | 0 mm | - | 10 W/m² | - |
| 1778035120 | 14.44° C | 60% | 1013.4 hPa | 0 mm | - | 13 W/m² | - |
| 1778034817 | 15° C | 58% | 1013.7 hPa | 0 mm | - | 17 W/m² | - |
| 1778034514 | 15.56° C | 54% | 1013.7 hPa | 0 mm | - | 21 W/m² | - |
| 1778034212 | 16.11° C | 53% | 1013.7 hPa | 0 mm | - | 26 W/m² | - |
| 1778033910 | 16.11° C | 51% | 1013.7 hPa | 0 mm | - | 31 W/m² | - |
| 1778033606 | 16.67° C | 51% | 1013.8 hPa | 0 mm | - | 35 W/m² | - |
| 1778033303 | 16.67° C | 51% | 1013.8 hPa | 0 mm | - | 40 W/m² | - |
| 1778033001 | 16.67° C | 51% | 1013.5 hPa | 0 mm | - | 46 W/m² | - |
| 1778032698 | 16.67° C | 51% | 1013.5 hPa | 0 mm | - | 57 W/m² | - |
| 1778032396 | 16.67° C | 51% | 1013.5 hPa | 0 mm | - | 66 W/m² | - |
| 1778032092 | 16.67° C | 50% | 1013.5 hPa | 0 mm | - | 80 W/m² | - |
| 1778031789 | 16.67° C | 50% | 1013.5 hPa | 0 mm | - | 88 W/m² | - |
| 1778031486 | 16.67° C | 47% | 1013.4 hPa | 0 mm | - | 100 W/m² | - |
| 1778031183 | 16.11° C | 48% | 1013.5 hPa | 0 mm | - | 114 W/m² | - |
| 1778030879 | 16.67° C | 48% | 1013.5 hPa | 0 mm | - | 127 W/m² | - |
| 1778030274 | 16.67° C | 49% | 1013.7 hPa | 0 mm | - | 153 W/m² | - |
| 1778029970 | 16.67° C | 48% | 1013.8 hPa | 0 mm | - | 170 W/m² | - |
| 1778029668 | 16.67° C | 48% | 1013.8 hPa | 0 mm | - | 188 W/m² | - |
| 1778029365 | 16.67° C | 48% | 1013.7 hPa | 0 mm | - | 205 W/m² | - |
| 1778029062 | 16.67° C | 47% | 1013.7 hPa | 0 mm | - | 220 W/m² | - |
| 1778028759 | 16.67° C | 47% | 1013.9 hPa | 0 mm | - | 238 W/m² | - |
| 1778028455 | 16.67° C | 46% | 1013.5 hPa | 0 mm | - | 257 W/m² | - |
| 1778028153 | 16.67° C | 47% | 1013.5 hPa | 0 mm | - | 276 W/m² | - |
| 1778027545 | 16.67° C | 50% | 1013.7 hPa | 0 mm | - | 317 W/m² | - |
* Rain latest hour (hover to see other rain measurements)
** Current wind speed in m/s (hover to see current wind gust speed)